createdAt,value
2023-12-14T00:00:29.027Z,1002.56
2023-12-14T00:01:29.109Z,1002.59
2023-12-14T00:02:29.114Z,1002.60
2023-12-14T00:03:29.100Z,1002.62
2023-12-14T00:04:29.212Z,1002.61
2023-12-14T00:05:29.154Z,1002.59
2023-12-14T00:06:29.440Z,1002.67
2023-12-14T00:07:29.250Z,1002.66
2023-12-14T00:08:29.241Z,1002.66
2023-12-14T00:09:29.468Z,1002.70
2023-12-14T00:10:29.343Z,1002.74
2023-12-14T00:12:29.328Z,1002.79
2023-12-14T00:13:29.812Z,1002.82
2023-12-14T00:15:29.474Z,1002.88
2023-12-14T00:16:29.443Z,1002.91
2023-12-14T00:17:29.628Z,1002.90
2023-12-14T00:18:29.485Z,1002.91
2023-12-14T00:19:29.586Z,1002.91
2023-12-14T00:20:29.843Z,1002.92
2023-12-14T00:21:29.584Z,1002.99
2023-12-14T00:22:29.636Z,1002.96
2023-12-14T00:23:29.610Z,1002.94
2023-12-14T00:24:29.685Z,1002.99
2023-12-14T00:25:29.847Z,1002.99
2023-12-14T00:26:29.701Z,1002.98
2023-12-14T00:28:32.341Z,1003.00
2023-12-14T00:29:29.816Z,1003.05
2023-12-14T00:30:29.835Z,1003.03
2023-12-14T00:31:29.937Z,1003.05
2023-12-14T00:32:29.903Z,1003.08
2023-12-14T00:34:29.924Z,1003.08
2023-12-14T00:35:30.221Z,1003.11
2023-12-14T00:36:29.944Z,1003.10
2023-12-14T00:37:29.974Z,1003.14
2023-12-14T00:38:30.110Z,1003.14
2023-12-14T00:39:30.020Z,1003.14
2023-12-14T00:40:30.241Z,1003.15
2023-12-14T00:41:30.174Z,1003.19
2023-12-14T00:42:30.395Z,1003.19
2023-12-14T00:43:30.137Z,1003.25
2023-12-14T00:44:30.157Z,1003.29
2023-12-14T00:45:30.175Z,1003.31
2023-12-14T00:46:30.253Z,1003.34
2023-12-14T00:47:30.261Z,1003.40
2023-12-14T00:48:30.251Z,1003.44
2023-12-14T00:49:30.585Z,1003.53
2023-12-14T00:50:30.337Z,1003.49
2023-12-14T00:51:30.315Z,1003.54
2023-12-14T00:52:30.388Z,1003.55
2023-12-14T00:53:30.377Z,1003.56
2023-12-14T00:54:30.394Z,1003.58
2023-12-14T00:55:30.453Z,1003.58
2023-12-14T00:56:30.819Z,1003.60
2023-12-14T00:57:30.479Z,1003.57
2023-12-14T00:58:30.617Z,1003.60
2023-12-14T00:59:30.630Z,1003.61
2023-12-14T01:00:30.547Z,1003.63
2023-12-14T01:01:30.677Z,1003.63
2023-12-14T01:02:30.635Z,1003.67
2023-12-14T01:03:31.018Z,1003.66
2023-12-14T01:04:30.665Z,1003.68
2023-12-14T01:05:30.778Z,1003.66
2023-12-14T01:06:30.698Z,1003.71
2023-12-14T01:07:30.760Z,1003.75
2023-12-14T01:08:30.758Z,1003.76
2023-12-14T01:09:30.799Z,1003.76
2023-12-14T01:10:31.123Z,1003.78
2023-12-14T01:11:30.826Z,1003.84
2023-12-14T01:12:30.857Z,1003.86
2023-12-14T01:13:30.964Z,1003.86
2023-12-14T01:14:30.904Z,1003.92
2023-12-14T01:15:30.937Z,1003.93
2023-12-14T01:16:30.973Z,1003.95
2023-12-14T01:17:31.314Z,1003.96
2023-12-14T01:18:31.187Z,1003.98
2023-12-14T01:19:31.138Z,1003.98
2023-12-14T01:20:31.068Z,1004.02
2023-12-14T01:21:31.085Z,1004.02
2023-12-14T01:22:31.160Z,1004.04
2023-12-14T01:23:31.141Z,1004.07
2023-12-14T01:24:31.536Z,1004.06
2023-12-14T01:25:31.256Z,1004.09
2023-12-14T01:26:31.220Z,1004.11
2023-12-14T01:27:31.253Z,1004.08
2023-12-14T01:28:31.311Z,1004.12
2023-12-14T01:30:31.355Z,1004.13
2023-12-14T01:31:31.694Z,1004.10
2023-12-14T01:32:31.456Z,1004.14
2023-12-14T01:34:31.496Z,1004.16
2023-12-14T01:36:31.512Z,1004.17
2023-12-14T01:37:31.539Z,1004.21
2023-12-14T01:38:31.818Z,1004.22
2023-12-14T01:41:31.697Z,1004.27
2023-12-14T01:42:31.898Z,1004.34
2023-12-14T01:43:31.743Z,1004.34
2023-12-14T01:44:31.856Z,1004.38
2023-12-14T01:45:31.975Z,1004.39
2023-12-14T01:46:31.778Z,1004.41
2023-12-14T01:47:31.816Z,1004.42
2023-12-14T01:48:31.890Z,1004.46
2023-12-14T01:49:31.962Z,1004.48
2023-12-14T01:50:31.893Z,1004.46
2023-12-14T01:51:31.855Z,1004.50
2023-12-14T01:52:32.449Z,1004.53
2023-12-14T01:53:31.906Z,1004.50
2023-12-14T01:54:31.945Z,1004.56
2023-12-14T01:55:32.067Z,1004.58
2023-12-14T01:56:31.979Z,1004.61
2023-12-14T01:57:32.010Z,1004.62
2023-12-14T01:58:32.082Z,1004.67
2023-12-14T01:59:32.359Z,1004.68
2023-12-14T02:00:32.199Z,1004.70
2023-12-14T02:01:32.138Z,1004.73
2023-12-14T02:03:32.194Z,1004.77
2023-12-14T02:04:32.304Z,1004.76
2023-12-14T02:06:32.236Z,1004.83
2023-12-14T02:07:32.578Z,1004.86
2023-12-14T02:08:32.317Z,1004.86
2023-12-14T02:09:32.330Z,1004.89
2023-12-14T02:11:32.402Z,1004.91
2023-12-14T02:12:32.631Z,1004.89
2023-12-14T02:13:32.430Z,1004.94
2023-12-14T02:14:32.743Z,1004.91
2023-12-14T02:15:32.479Z,1004.90
2023-12-14T02:16:32.497Z,1005.00
2023-12-14T02:17:32.529Z,1004.98
2023-12-14T02:18:32.615Z,1005.04
2023-12-14T02:19:32.623Z,1005.05
2023-12-14T02:20:32.591Z,1005.07
2023-12-14T02:21:32.925Z,1005.07
2023-12-14T02:22:32.962Z,1005.13
2023-12-14T02:23:32.662Z,1005.14
2023-12-14T02:24:32.724Z,1005.13
2023-12-14T02:25:32.771Z,1005.18
2023-12-14T02:27:32.787Z,1005.18
2023-12-14T02:28:33.082Z,1005.15
2023-12-14T02:29:32.840Z,1005.23
2023-12-14T02:30:32.855Z,1005.23
2023-12-14T02:31:32.929Z,1005.28
2023-12-14T02:32:33.083Z,1005.23
2023-12-14T02:33:32.950Z,1005.30
2023-12-14T02:35:33.270Z,1005.32
2023-12-14T02:36:32.998Z,1005.37
2023-12-14T02:37:33.129Z,1005.38
2023-12-14T02:38:33.118Z,1005.43
2023-12-14T02:39:33.073Z,1005.42
2023-12-14T02:40:33.142Z,1005.47
2023-12-14T02:41:33.119Z,1005.46
2023-12-14T02:42:33.683Z,1005.49
2023-12-14T02:43:33.177Z,1005.53
2023-12-14T02:44:33.212Z,1005.55
2023-12-14T02:45:33.224Z,1005.56
2023-12-14T02:46:33.317Z,1005.57
2023-12-14T02:47:33.281Z,1005.57
2023-12-14T02:48:33.691Z,1005.57
2023-12-14T02:49:33.369Z,1005.59
2023-12-14T02:51:33.368Z,1005.66
2023-12-14T02:52:33.928Z,1005.63
2023-12-14T02:53:33.448Z,1005.66
2023-12-14T02:54:33.736Z,1005.66
2023-12-14T02:55:33.474Z,1005.71
2023-12-14T02:56:33.517Z,1005.71
2023-12-14T02:57:33.520Z,1005.76
2023-12-14T02:58:33.562Z,1005.74
2023-12-14T02:59:33.563Z,1005.75
2023-12-14T03:00:33.998Z,1005.75
2023-12-14T03:01:33.657Z,1005.76
2023-12-14T03:02:33.859Z,1005.78
2023-12-14T03:03:33.730Z,1005.76
2023-12-14T03:04:33.753Z,1005.79
2023-12-14T03:05:33.767Z,1005.80
2023-12-14T03:06:33.753Z,1005.83
2023-12-14T03:07:34.098Z,1005.83
2023-12-14T03:08:33.795Z,1005.86
2023-12-14T03:09:33.821Z,1005.89
2023-12-14T03:10:33.986Z,1005.87
2023-12-14T03:11:33.905Z,1005.88
2023-12-14T03:12:34.515Z,1005.94
2023-12-14T03:13:33.964Z,1005.99
2023-12-14T03:14:34.253Z,1005.96
2023-12-14T03:19:34.098Z,1006.03
2023-12-14T03:20:34.098Z,1006.08
2023-12-14T03:21:34.425Z,1006.08
2023-12-14T03:22:34.515Z,1006.11
2023-12-14T03:23:34.182Z,1006.14
2023-12-14T03:24:34.196Z,1006.20
2023-12-14T03:25:34.268Z,1006.13
2023-12-14T03:26:34.256Z,1006.19
2023-12-14T03:27:34.280Z,1006.23
2023-12-14T03:28:34.644Z,1006.22
2023-12-14T03:29:34.356Z,1006.23
2023-12-14T03:30:34.453Z,1006.29
2023-12-14T03:31:34.517Z,1006.24
2023-12-14T03:35:34.780Z,1006.37
2023-12-14T03:36:34.538Z,1006.36
2023-12-14T03:37:34.577Z,1006.38
2023-12-14T03:39:34.603Z,1006.41
2023-12-14T03:40:34.631Z,1006.45
2023-12-14T03:41:34.628Z,1006.45
2023-12-14T03:42:35.228Z,1006.46
2023-12-14T03:43:34.706Z,1006.45
2023-12-14T03:44:34.721Z,1006.49
2023-12-14T03:45:34.727Z,1006.49
2023-12-14T03:46:34.783Z,1006.50
2023-12-14T03:47:34.775Z,1006.51
2023-12-14T03:48:34.902Z,1006.53
2023-12-14T03:49:35.130Z,1006.54
2023-12-14T03:50:34.867Z,1006.58
2023-12-14T03:51:34.888Z,1006.55
2023-12-14T03:52:35.491Z,1006.58
2023-12-14T03:53:34.952Z,1006.58
2023-12-14T03:54:34.957Z,1006.62
2023-12-14T03:55:34.998Z,1006.65
2023-12-14T03:56:35.314Z,1006.67
2023-12-14T03:57:35.034Z,1006.74
2023-12-14T03:58:35.104Z,1006.79
2023-12-14T03:59:36.288Z,1006.81
2023-12-14T04:00:35.514Z,1006.84
2023-12-14T04:01:35.450Z,1006.84
2023-12-14T04:02:35.399Z,1006.90
2023-12-14T04:03:35.484Z,1006.87
2023-12-14T04:04:35.265Z,1006.93
2023-12-14T04:05:35.388Z,1006.96
2023-12-14T04:06:35.265Z,1007.00
2023-12-14T04:08:35.312Z,1007.04
2023-12-14T04:09:35.338Z,1007.02
2023-12-14T04:10:35.728Z,1007.09
2023-12-14T04:11:35.380Z,1007.06
2023-12-14T04:12:35.600Z,1007.04
2023-12-14T04:13:35.511Z,1007.07
2023-12-14T04:14:35.471Z,1007.09
2023-12-14T04:16:35.584Z,1007.08
2023-12-14T04:17:36.041Z,1007.07
2023-12-14T04:19:35.646Z,1007.10
2023-12-14T04:20:35.650Z,1007.13
2023-12-14T04:21:35.697Z,1007.21
2023-12-14T04:22:35.986Z,1007.18
2023-12-14T04:23:35.718Z,1007.23
2023-12-14T04:24:35.975Z,1007.23
2023-12-14T04:26:35.777Z,1007.26
2023-12-14T04:27:35.891Z,1007.29
2023-12-14T04:28:35.833Z,1007.32
2023-12-14T04:29:35.847Z,1007.32
2023-12-14T04:30:35.929Z,1007.33
2023-12-14T04:31:36.238Z,1007.36
2023-12-14T04:32:36.136Z,1007.35
2023-12-14T04:33:35.964Z,1007.35
2023-12-14T04:34:35.982Z,1007.35
2023-12-14T04:35:35.990Z,1007.36
2023-12-14T04:36:36.013Z,1007.36
2023-12-14T04:37:36.076Z,1007.36
2023-12-14T04:38:36.363Z,1007.40
2023-12-14T04:39:36.099Z,1007.41
2023-12-14T04:40:36.165Z,1007.41
2023-12-14T04:41:36.137Z,1007.40
2023-12-14T04:42:36.504Z,1007.43
2023-12-14T04:43:36.219Z,1007.42
2023-12-14T04:45:36.544Z,1007.49
2023-12-14T04:47:36.321Z,1007.57
2023-12-14T04:48:36.488Z,1007.59
2023-12-14T04:49:36.371Z,1007.60
2023-12-14T04:50:36.371Z,1007.64
2023-12-14T04:51:36.396Z,1007.67
2023-12-14T04:52:37.004Z,1007.69
2023-12-14T04:53:36.441Z,1007.72
2023-12-14T04:54:36.487Z,1007.69
2023-12-14T04:55:36.645Z,1007.70
2023-12-14T04:57:36.570Z,1007.80
2023-12-14T04:58:36.882Z,1007.81
2023-12-14T04:59:36.606Z,1007.85
2023-12-14T05:00:36.634Z,1007.86
2023-12-14T05:01:36.714Z,1007.88
2023-12-14T05:02:36.894Z,1007.91
2023-12-14T05:05:37.116Z,1007.98
2023-12-14T05:06:36.881Z,1008.01
2023-12-14T05:07:36.818Z,1008.03
2023-12-14T05:08:36.850Z,1008.03
2023-12-14T05:09:36.861Z,1008.05
2023-12-14T05:10:37.356Z,1008.07
2023-12-14T05:11:36.898Z,1008.07
2023-12-14T05:12:37.456Z,1008.04
2023-12-14T05:13:36.959Z,1008.05
2023-12-14T05:14:36.969Z,1008.04
2023-12-14T05:15:37.008Z,1008.11
2023-12-14T05:16:37.029Z,1008.08
2023-12-14T05:17:37.083Z,1008.10
2023-12-14T05:18:37.411Z,1008.10
2023-12-14T05:19:37.602Z,1008.15
2023-12-14T05:20:37.152Z,1008.16
2023-12-14T05:21:37.179Z,1008.20
2023-12-14T05:22:37.527Z,1008.20
2023-12-14T05:23:37.205Z,1008.19
2023-12-14T05:24:37.565Z,1008.17
2023-12-14T05:25:37.272Z,1008.23
2023-12-14T05:26:37.291Z,1008.24
2023-12-14T05:27:37.374Z,1008.26
2023-12-14T05:28:37.364Z,1008.20
2023-12-14T05:29:37.358Z,1008.29
2023-12-14T05:31:37.461Z,1008.31
2023-12-14T05:32:38.246Z,1008.28
2023-12-14T05:33:37.698Z,1008.30
2023-12-14T05:34:37.554Z,1008.31
2023-12-14T05:35:37.580Z,1008.33
2023-12-14T05:36:37.562Z,1008.33
2023-12-14T05:37:37.697Z,1008.35
2023-12-14T05:38:37.598Z,1008.38
2023-12-14T05:39:37.906Z,1008.41
2023-12-14T05:40:37.659Z,1008.43
2023-12-14T05:41:37.650Z,1008.45
2023-12-14T05:42:37.858Z,1008.45
2023-12-14T05:43:37.840Z,1008.47
2023-12-14T05:44:37.749Z,1008.47
2023-12-14T05:45:37.750Z,1008.48
2023-12-14T05:47:38.078Z,1008.51
2023-12-14T05:48:37.895Z,1008.52
2023-12-14T05:49:37.881Z,1008.55
2023-12-14T05:50:37.889Z,1008.56
2023-12-14T05:51:37.910Z,1008.57
2023-12-14T05:52:38.192Z,1008.63
2023-12-14T05:53:38.286Z,1008.60
2023-12-14T05:56:40.323Z,1008.73
2023-12-14T05:57:38.057Z,1008.73
2023-12-14T05:58:38.117Z,1008.72
2023-12-14T05:59:38.104Z,1008.78
2023-12-14T06:00:38.455Z,1008.78
2023-12-14T06:01:38.259Z,1008.80
2023-12-14T06:02:38.818Z,1008.80
2023-12-14T06:04:38.340Z,1008.86
2023-12-14T06:05:38.398Z,1008.92
2023-12-14T06:06:38.277Z,1008.92
2023-12-14T06:07:38.696Z,1008.96
2023-12-14T06:08:38.340Z,1008.98
2023-12-14T06:09:38.381Z,1008.99
2023-12-14T06:10:38.438Z,1009.01
2023-12-14T06:12:38.766Z,1009.07
2023-12-14T06:13:38.498Z,1009.11
2023-12-14T06:14:38.803Z,1009.14
2023-12-14T06:16:38.578Z,1009.17
2023-12-14T06:17:38.671Z,1009.18
2023-12-14T06:18:38.724Z,1009.18
2023-12-14T06:19:38.668Z,1009.19
2023-12-14T06:20:38.635Z,1009.23
2023-12-14T06:21:38.958Z,1009.27
2023-12-14T06:22:38.922Z,1009.35
2023-12-14T06:23:38.718Z,1009.37
2023-12-14T06:24:38.744Z,1009.38
2023-12-14T06:25:38.828Z,1009.41
2023-12-14T06:26:38.782Z,1009.42
2023-12-14T06:27:38.819Z,1009.47
2023-12-14T06:28:39.157Z,1009.49
2023-12-14T06:29:38.870Z,1009.50
2023-12-14T06:30:39.034Z,1009.52
2023-12-14T06:31:38.980Z,1009.54
2023-12-14T06:32:39.345Z,1009.56
2023-12-14T06:33:39.040Z,1009.56
2023-12-14T06:34:39.039Z,1009.61
2023-12-14T06:35:39.314Z,1009.57
2023-12-14T06:36:39.037Z,1009.61
2023-12-14T06:37:39.220Z,1009.67
2023-12-14T06:38:39.091Z,1009.68
2023-12-14T06:40:39.163Z,1009.75
2023-12-14T06:41:39.181Z,1009.76
2023-12-14T06:42:39.593Z,1009.80
2023-12-14T06:43:39.242Z,1009.80
2023-12-14T06:44:39.237Z,1009.82
2023-12-14T06:45:39.277Z,1009.86
2023-12-14T06:46:39.337Z,1009.90
2023-12-14T06:47:39.407Z,1009.93
2023-12-14T06:48:39.475Z,1009.95
2023-12-14T06:49:39.807Z,1009.96
2023-12-14T06:50:39.397Z,1010.01
2023-12-14T06:52:40.052Z,1010.06
2023-12-14T06:53:39.471Z,1010.05
2023-12-14T06:54:39.488Z,1010.07
2023-12-14T06:55:39.563Z,1010.09
2023-12-14T06:56:39.849Z,1010.11
2023-12-14T06:58:39.654Z,1010.14
2023-12-14T06:59:39.622Z,1010.19
2023-12-14T07:00:39.727Z,1010.22
2023-12-14T07:02:40.042Z,1010.19
2023-12-14T07:03:39.734Z,1010.23
2023-12-14T07:04:39.763Z,1010.25
2023-12-14T07:05:39.840Z,1010.26
2023-12-14T07:06:39.795Z,1010.30
2023-12-14T07:07:39.872Z,1010.29
2023-12-14T07:08:40.133Z,1010.33
2023-12-14T07:09:39.871Z,1010.35
2023-12-14T07:10:39.914Z,1010.38
2023-12-14T07:11:39.921Z,1010.37
2023-12-14T07:12:39.962Z,1010.40
2023-12-14T07:13:40.094Z,1010.41
2023-12-14T07:15:40.334Z,1010.46
2023-12-14T07:16:40.142Z,1010.49
2023-12-14T07:18:40.260Z,1010.50
2023-12-14T07:19:40.160Z,1010.48
2023-12-14T07:20:40.139Z,1010.53
2023-12-14T07:21:40.488Z,1010.53
2023-12-14T07:22:40.216Z,1010.57
2023-12-14T07:23:40.234Z,1010.59
2023-12-14T07:24:48.683Z,1010.60
2023-12-14T07:25:40.299Z,1010.66
2023-12-14T07:26:40.301Z,1010.68
2023-12-14T07:27:40.615Z,1010.71
2023-12-14T07:28:40.395Z,1010.71
2023-12-14T07:29:40.368Z,1010.72
2023-12-14T07:30:40.419Z,1010.71
2023-12-14T07:31:40.491Z,1010.76
2023-12-14T07:32:40.560Z,1010.79
2023-12-14T07:34:40.896Z,1010.85
2023-12-14T07:35:40.513Z,1010.93
2023-12-14T07:36:40.536Z,1010.91
2023-12-14T07:37:40.593Z,1010.96
2023-12-14T07:38:40.583Z,1010.97
2023-12-14T07:39:40.630Z,1010.99
2023-12-14T07:40:40.709Z,1011.00
2023-12-14T07:41:40.961Z,1011.07
2023-12-14T07:42:40.686Z,1011.08
2023-12-14T07:43:40.810Z,1011.14
2023-12-14T07:44:40.731Z,1011.14
2023-12-14T07:45:40.766Z,1011.12
2023-12-14T07:46:40.921Z,1011.14
2023-12-14T07:47:40.865Z,1011.21
2023-12-14T07:48:41.211Z,1011.17
2023-12-14T07:49:40.866Z,1011.17
2023-12-14T07:50:40.893Z,1011.21
2023-12-14T07:51:40.928Z,1011.27
2023-12-14T07:52:40.965Z,1011.25
2023-12-14T07:53:40.996Z,1011.28
2023-12-14T07:54:40.995Z,1011.25
2023-12-14T07:55:41.389Z,1011.28
2023-12-14T07:56:41.066Z,1011.34
2023-12-14T07:57:41.062Z,1011.37
2023-12-14T07:58:41.238Z,1011.36
2023-12-14T07:59:41.164Z,1011.40
2023-12-14T08:00:41.712Z,1011.38
2023-12-14T08:01:41.206Z,1011.37
2023-12-14T08:02:41.487Z,1011.38
2023-12-14T08:03:41.258Z,1011.42
2023-12-14T08:04:41.250Z,1011.41
2023-12-14T08:05:41.319Z,1011.42
2023-12-14T08:06:41.281Z,1011.45
2023-12-14T08:07:41.352Z,1011.41
2023-12-14T08:08:41.344Z,1011.52
2023-12-14T08:09:41.823Z,1011.52
2023-12-14T08:10:41.413Z,1011.53
2023-12-14T08:11:41.420Z,1011.51
2023-12-14T08:12:41.451Z,1011.54
2023-12-14T08:13:42.098Z,1011.61
2023-12-14T08:14:42.266Z,1011.60
2023-12-14T08:15:41.556Z,1011.59
2023-12-14T08:16:41.866Z,1011.62
2023-12-14T08:17:41.569Z,1011.68
2023-12-14T08:18:44.132Z,1011.69
2023-12-14T08:19:42.561Z,1011.76
2023-12-14T08:20:42.329Z,1011.77
2023-12-14T08:21:42.197Z,1011.79
2023-12-14T08:22:42.271Z,1011.80
2023-12-14T08:23:42.003Z,1011.81
2023-12-14T08:24:41.773Z,1011.85
2023-12-14T08:25:41.811Z,1011.88
2023-12-14T08:26:41.850Z,1011.85
2023-12-14T08:27:41.948Z,1011.87
2023-12-14T08:28:42.326Z,1011.94
2023-12-14T08:29:41.893Z,1011.94
2023-12-14T08:30:42.341Z,1011.94
2023-12-14T08:31:42.087Z,1011.96
2023-12-14T08:32:42.519Z,1011.98
2023-12-14T08:33:42.078Z,1012.01
2023-12-14T08:34:42.262Z,1012.04
2023-12-14T08:35:42.087Z,1012.05
2023-12-14T08:36:42.070Z,1012.06
2023-12-14T08:37:42.396Z,1012.08
2023-12-14T08:38:42.089Z,1012.14
2023-12-14T08:39:42.098Z,1012.09
2023-12-14T08:40:42.198Z,1012.13
2023-12-14T08:41:42.391Z,1012.14
2023-12-14T08:42:42.986Z,1012.20
2023-12-14T08:43:42.282Z,1012.23
2023-12-14T08:45:42.251Z,1012.26
2023-12-14T08:47:42.415Z,1012.27
2023-12-14T08:48:42.520Z,1012.29
2023-12-14T08:49:42.388Z,1012.30
2023-12-14T08:50:42.520Z,1012.37
2023-12-14T08:51:42.806Z,1012.39
2023-12-14T08:52:42.582Z,1012.39
2023-12-14T08:53:42.624Z,1012.40
2023-12-14T08:54:42.547Z,1012.43
2023-12-14T08:55:42.571Z,1012.46
2023-12-14T08:56:42.563Z,1012.48
2023-12-14T08:57:42.544Z,1012.50
2023-12-14T08:58:43.177Z,1012.51
2023-12-14T09:00:42.637Z,1012.56
2023-12-14T09:01:42.853Z,1012.61
2023-12-14T09:02:42.953Z,1012.62
2023-12-14T09:03:42.763Z,1012.65
2023-12-14T09:05:42.880Z,1012.69
2023-12-14T09:06:42.790Z,1012.69
2023-12-14T09:07:42.799Z,1012.74
2023-12-14T09:08:42.831Z,1012.79
2023-12-14T09:09:42.845Z,1012.76
2023-12-14T09:10:43.196Z,1012.84
2023-12-14T09:11:42.887Z,1012.85
2023-12-14T09:12:42.919Z,1012.88
2023-12-14T09:13:42.952Z,1012.88
2023-12-14T09:14:42.967Z,1012.90
2023-12-14T09:16:43.353Z,1012.93
2023-12-14T09:17:43.396Z,1012.93
2023-12-14T09:19:43.158Z,1012.99
2023-12-14T09:20:43.115Z,1012.99
2023-12-14T09:21:46.669Z,1012.97
2023-12-14T09:22:43.280Z,1012.96
2023-12-14T09:23:43.493Z,1012.98
2023-12-14T09:24:43.210Z,1013.02
2023-12-14T09:25:43.312Z,1013.04
2023-12-14T09:26:43.265Z,1013.05
2023-12-14T09:27:43.278Z,1013.09
2023-12-14T09:28:43.408Z,1013.09
2023-12-14T09:29:43.340Z,1013.10
2023-12-14T09:30:43.985Z,1013.11
2023-12-14T09:31:43.607Z,1013.11
2023-12-14T09:32:43.985Z,1013.16
2023-12-14T09:33:43.522Z,1013.14
2023-12-14T09:34:43.510Z,1013.15
2023-12-14T09:35:43.567Z,1013.19
2023-12-14T09:36:43.565Z,1013.18
2023-12-14T09:37:43.937Z,1013.20
2023-12-14T09:38:48.671Z,1013.21
2023-12-14T09:39:45.908Z,1013.20
2023-12-14T09:41:43.636Z,1013.24
2023-12-14T09:42:43.674Z,1013.24
2023-12-14T09:43:46.379Z,1013.26
2023-12-14T09:44:44.116Z,1013.27
2023-12-14T09:45:43.930Z,1013.31
2023-12-14T09:46:43.790Z,1013.35
2023-12-14T09:47:43.951Z,1013.32
2023-12-14T09:48:43.898Z,1013.37
2023-12-14T09:49:43.953Z,1013.39
2023-12-14T09:50:43.896Z,1013.34
2023-12-14T09:51:44.188Z,1013.40
2023-12-14T09:52:43.946Z,1013.43
2023-12-14T09:53:43.926Z,1013.39
2023-12-14T09:54:43.968Z,1013.41
2023-12-14T09:55:43.995Z,1013.41
2023-12-14T09:56:43.994Z,1013.44
2023-12-14T09:57:44.016Z,1013.46
2023-12-14T09:58:44.365Z,1013.48
2023-12-14T09:59:44.070Z,1013.49
2023-12-14T10:00:44.153Z,1013.51
2023-12-14T10:01:46.641Z,1013.49
2023-12-14T10:02:44.141Z,1013.53
2023-12-14T10:03:44.176Z,1013.51
2023-12-14T10:04:44.251Z,1013.54
2023-12-14T10:05:44.651Z,1013.54
2023-12-14T10:06:44.302Z,1013.55
2023-12-14T10:07:44.290Z,1013.57
2023-12-14T10:08:44.286Z,1013.60
2023-12-14T10:09:44.313Z,1013.64
2023-12-14T10:10:44.390Z,1013.62
2023-12-14T10:11:44.358Z,1013.65
2023-12-14T10:12:44.691Z,1013.67
2023-12-14T10:13:44.426Z,1013.65
2023-12-14T10:14:44.439Z,1013.68
2023-12-14T10:15:44.497Z,1013.69
2023-12-14T10:16:44.495Z,1013.74
2023-12-14T10:17:44.608Z,1013.77
2023-12-14T10:18:44.615Z,1013.76
2023-12-14T10:19:45.016Z,1013.81
2023-12-14T10:20:44.582Z,1013.84
2023-12-14T10:21:44.611Z,1013.86
2023-12-14T10:22:44.671Z,1013.87
2023-12-14T10:23:44.689Z,1013.90
2023-12-14T10:24:44.695Z,1013.91
2023-12-14T10:25:44.716Z,1013.95
2023-12-14T10:26:45.051Z,1013.97
2023-12-14T10:27:44.808Z,1013.99
2023-12-14T10:28:44.836Z,1014.02
2023-12-14T10:29:46.150Z,1014.06
2023-12-14T10:30:44.953Z,1014.07
2023-12-14T10:31:45.280Z,1014.11
2023-12-14T10:32:45.020Z,1014.10
2023-12-14T10:33:45.431Z,1014.13
2023-12-14T10:34:44.970Z,1014.16
2023-12-14T10:35:44.954Z,1014.19
2023-12-14T10:36:44.977Z,1014.18
2023-12-14T10:37:45.036Z,1014.23
2023-12-14T10:39:45.149Z,1014.28
2023-12-14T10:40:45.449Z,1014.29
2023-12-14T10:41:45.098Z,1014.33
2023-12-14T10:42:45.210Z,1014.33
2023-12-14T10:43:49.431Z,1014.38
2023-12-14T10:45:05.095Z,1014.38
2023-12-14T10:45:45.229Z,1014.43
2023-12-14T10:46:45.263Z,1014.44
2023-12-14T10:47:47.497Z,1014.48
2023-12-14T10:48:45.363Z,1014.47
2023-12-14T10:49:45.319Z,1014.45
2023-12-14T10:50:45.321Z,1014.47
2023-12-14T10:51:47.209Z,1014.46
2023-12-14T10:52:45.386Z,1014.43
2023-12-14T10:53:45.396Z,1014.46
2023-12-14T10:54:45.728Z,1014.41
2023-12-14T10:55:45.522Z,1014.42
2023-12-14T10:56:45.550Z,1014.40
2023-12-14T10:57:46.997Z,1014.39
2023-12-14T10:58:45.567Z,1014.40
2023-12-14T10:59:45.546Z,1014.40
2023-12-14T11:00:45.565Z,1014.41
2023-12-14T11:01:45.927Z,1014.42
2023-12-14T11:02:45.615Z,1014.46
2023-12-14T11:03:45.647Z,1014.45
2023-12-14T11:04:45.727Z,1014.49
2023-12-14T11:05:45.783Z,1014.49
2023-12-14T11:06:45.727Z,1014.49
2023-12-14T11:07:46.098Z,1014.48
2023-12-14T11:08:45.780Z,1014.52
2023-12-14T11:09:45.792Z,1014.56
2023-12-14T11:10:45.843Z,1014.54
2023-12-14T11:11:45.837Z,1014.56
2023-12-14T11:12:45.863Z,1014.59
2023-12-14T11:13:46.212Z,1014.58
2023-12-14T11:14:45.953Z,1014.57
2023-12-14T11:15:45.946Z,1014.60
2023-12-14T11:16:46.061Z,1014.62
2023-12-14T11:17:46.076Z,1014.61
2023-12-14T11:18:46.066Z,1014.65
2023-12-14T11:19:47.752Z,1014.64
2023-12-14T11:20:46.235Z,1014.67
2023-12-14T11:21:46.089Z,1014.67
2023-12-14T11:22:46.141Z,1014.64
2023-12-14T11:23:46.132Z,1014.66
2023-12-14T11:24:46.160Z,1014.68
2023-12-14T11:25:47.728Z,1014.69
2023-12-14T11:26:46.611Z,1014.73
2023-12-14T11:27:46.242Z,1014.77
2023-12-14T11:28:46.254Z,1014.82
2023-12-14T11:29:46.286Z,1014.85
2023-12-14T11:30:54.785Z,1014.86
2023-12-14T11:31:46.375Z,1014.87
2023-12-14T11:32:46.382Z,1014.83
2023-12-14T11:33:46.768Z,1014.90
2023-12-14T11:34:46.460Z,1014.91
2023-12-14T11:35:46.418Z,1014.97
2023-12-14T11:36:46.443Z,1014.97
2023-12-14T11:37:46.486Z,1014.97
2023-12-14T11:38:46.505Z,1014.98
2023-12-14T11:39:46.541Z,1015.05
2023-12-14T11:40:46.846Z,1015.04
2023-12-14T11:41:46.575Z,1015.05
2023-12-14T11:42:46.594Z,1015.05
2023-12-14T11:43:46.701Z,1015.07
2023-12-14T11:44:46.643Z,1015.06
2023-12-14T11:45:46.687Z,1015.08
2023-12-14T11:46:46.720Z,1015.14
2023-12-14T11:47:47.146Z,1015.12
2023-12-14T11:48:46.786Z,1015.08
2023-12-14T11:50:46.837Z,1015.12
2023-12-14T11:51:46.815Z,1015.11
2023-12-14T11:52:46.869Z,1015.14
2023-12-14T11:53:46.874Z,1015.17
2023-12-14T11:54:47.198Z,1015.14
2023-12-14T11:55:46.949Z,1015.17
2023-12-14T11:56:46.943Z,1015.18
2023-12-14T11:57:46.975Z,1015.19
2023-12-14T11:58:47.008Z,1015.20
2023-12-14T11:59:47.004Z,1015.18
2023-12-14T12:00:47.046Z,1015.21
2023-12-14T12:01:47.361Z,1015.21
2023-12-14T12:02:47.114Z,1015.18
2023-12-14T12:03:47.177Z,1015.17
2023-12-14T12:04:47.207Z,1015.17
2023-12-14T12:05:47.590Z,1015.12
2023-12-14T12:06:47.211Z,1015.14
2023-12-14T12:07:47.324Z,1015.15
2023-12-14T12:08:47.545Z,1015.12
2023-12-14T12:09:47.254Z,1015.13
2023-12-14T12:10:47.359Z,1015.17
2023-12-14T12:11:47.345Z,1015.15
2023-12-14T12:12:47.337Z,1015.12
2023-12-14T12:13:47.431Z,1015.12
2023-12-14T12:14:47.373Z,1015.15
2023-12-14T12:15:47.722Z,1015.12
2023-12-14T12:16:47.475Z,1015.13
2023-12-14T12:17:47.493Z,1015.17
2023-12-14T12:18:47.604Z,1015.17
2023-12-14T12:19:47.510Z,1015.13
2023-12-14T12:20:47.524Z,1015.10
2023-12-14T12:21:47.560Z,1015.13
2023-12-14T12:22:47.880Z,1015.13
2023-12-14T12:23:47.622Z,1015.13
2023-12-14T12:24:50.914Z,1015.14
2023-12-14T12:25:47.661Z,1015.17
2023-12-14T12:26:47.749Z,1015.15
2023-12-14T12:27:47.698Z,1015.06
2023-12-14T12:28:47.752Z,1015.12
2023-12-14T12:29:48.056Z,1015.11
2023-12-14T12:30:47.782Z,1015.10
2023-12-14T12:31:47.826Z,1015.04
2023-12-14T12:32:47.845Z,1015.12
2023-12-14T12:33:47.894Z,1015.12
2023-12-14T12:34:47.979Z,1015.07
2023-12-14T12:35:47.891Z,1015.07
2023-12-14T12:36:48.213Z,1015.10
2023-12-14T12:37:47.974Z,1015.13
2023-12-14T12:38:47.989Z,1015.13
2023-12-14T12:39:47.994Z,1015.18
2023-12-14T12:40:48.083Z,1015.18
2023-12-14T12:41:48.045Z,1015.22
2023-12-14T12:42:48.086Z,1015.24
2023-12-14T12:44:48.118Z,1015.27
2023-12-14T12:45:48.157Z,1015.31
2023-12-14T12:46:57.839Z,1015.30
2023-12-14T12:47:48.302Z,1015.30
2023-12-14T12:48:48.373Z,1015.35
2023-12-14T12:49:48.338Z,1015.35
2023-12-14T12:50:48.618Z,1015.33
2023-12-14T12:51:48.371Z,1015.39
2023-12-14T12:52:48.340Z,1015.35
2023-12-14T12:53:48.337Z,1015.36
2023-12-14T12:54:48.457Z,1015.37
2023-12-14T12:55:48.423Z,1015.44
2023-12-14T12:56:48.411Z,1015.49
2023-12-14T12:57:48.743Z,1015.51
2023-12-14T12:58:48.577Z,1015.47
2023-12-14T12:59:48.477Z,1015.50
2023-12-14T13:00:48.590Z,1015.52
2023-12-14T13:01:48.640Z,1015.51